Time;durP1;ratioP1;P1;durP2;ratioP2;P2;SDS_P1;SDS_P2;PMS_P1;PMS_P2;Temp;Humidity;BMP_temperature;BMP_pressure;BME280_temperature;BME280_humidity;BME280_pressure;Samples;Min_cycle;Max_cycle;Signal;HPM_P1;HPM_P2
2022/06/25 00:00:23;;;;;;;4.97;4.20;;;;;;;18.53;100.00;100943.53;4920188;28;20270;-78
2022/06/25 00:02:48;;;;;;;5.80;4.70;;;;;;;17.85;100.00;100823.34;4916227;28;20188;-77
2022/06/25 00:05:29;;;;;;;4.13;3.80;;;;;;;18.45;100.00;100924.94;4917291;28;20185;-77
2022/06/25 00:07:55;;;;;;;3.83;3.47;;;;;;;18.27;100.00;100896.97;4915006;28;20255;-77
2022/06/25 00:10:21;;;;;;;3.80;3.50;;;;;;;18.70;100.00;100981.53;4920771;28;20465;-77
2022/06/25 00:12:46;;;;;;;3.83;3.53;;;;;;;18.67;100.00;101001.88;4920832;28;20532;-77
2022/06/25 00:15:12;;;;;;;6.00;4.00;;;;;;;18.22;100.00;100896.06;4919549;28;20195;-77
2022/06/25 00:17:37;;;;;;;4.63;4.23;;;;;;;18.82;100.00;100976.84;4916369;28;20271;-78
2022/06/25 00:20:04;;;;;;;4.20;3.90;;;;;;;17.95;100.00;100847.91;4914596;28;20177;-78
2022/06/25 00:22:29;;;;;;;5.47;4.97;;;;;;;18.33;100.00;100922.31;4916492;28;20196;-78
2022/06/25 00:24:55;;;;;;;4.40;4.00;;;;;;;18.76;100.00;100998.78;4918113;28;20444;-77
2022/06/25 00:27:21;;;;;;;4.23;3.93;;;;;;;17.99;100.00;100872.63;4918289;28;20226;-76
2022/06/25 00:29:46;;;;;;;5.03;4.53;;;;;;;18.62;100.00;100992.81;4917149;28;20449;-76
2022/06/25 00:32:11;;;;;;;4.37;3.97;;;;;;;18.50;100.00;100954.88;4915337;28;20203;-77
2022/06/25 00:34:38;;;;;;;4.30;4.00;;;;;;;18.62;100.00;101000.97;4918266;28;20649;-77
2022/06/25 00:37:04;;;;;;;4.53;4.13;;;;;;;18.14;100.00;100924.47;4922425;28;20196;-77
2022/06/25 00:39:30;;;;;;;7.83;4.37;;;;;;;17.66;100.00;100866.09;4914951;28;21043;-78
2022/06/25 00:41:55;;;;;;;4.47;4.07;;;;;;;18.44;100.00;100961.31;4914994;28;20439;-79
2022/06/25 00:44:21;;;;;;;4.73;4.33;;;;;;;17.81;100.00;100885.38;4928575;28;20668;-78
2022/06/25 00:46:47;;;;;;;4.20;3.90;;;;;;;18.22;100.00;100970.19;4921072;28;20191;-78
2022/06/25 00:49:13;;;;;;;4.30;3.90;;;;;;;18.39;100.00;100999.25;4922323;28;21207;-77
2022/06/25 00:51:40;;;;;;;5.30;4.70;;;;;;;17.61;100.00;100857.88;4919587;28;20554;-77
2022/06/25 00:54:09;;;;;;;6.20;4.93;;;;;;;18.47;100.00;101001.56;4917569;28;20271;-77
2022/06/25 00:56:37;;;;;;;5.60;5.10;;;;;;;16.27;100.00;100677.66;4922608;28;20947;-77
2022/06/25 00:59:04;;;;;;;5.13;4.73;;;;;;;17.62;100.00;100865.78;4915177;28;20976;-77
2022/06/25 01:01:33;;;;;;;4.63;4.23;;;;;;;18.35;100.00;100996.22;4915650;28;20436;-77
2022/06/25 01:03:58;;;;;;;4.40;4.10;;;;;;;18.32;100.00;101004.03;4914943;28;20436;-78
2022/06/25 01:06:24;;;;;;;5.67;4.67;;;;;;;17.59;100.00;100903.44;4918180;28;20921;-78
2022/06/25 01:08:50;;;;;;;5.40;4.90;;;;;;;17.36;100.00;100882.66;4920613;28;20204;-78
2022/06/25 01:11:15;;;;;;;4.10;3.77;;;;;;;18.23;100.00;101019.91;4903958;28;20204;-77
2022/06/25 01:13:40;;;;;;;4.50;4.20;;;;;;;17.67;100.00;100923.88;4918907;28;20192;-77
2022/06/25 01:16:06;;;;;;;4.83;4.43;;;;;;;18.12;100.00;100996.38;4923841;28;20226;-76
2022/06/25 01:18:31;;;;;;;5.10;4.60;;;;;;;17.59;100.00;100908.84;4926234;28;20208;-76
2022/06/25 01:20:57;;;;;;;7.33;4.67;;;;;;;17.40;100.00;100892.78;4919980;28;20759;-77
2022/06/25 01:23:22;;;;;;;6.70;6.00;;;;;;;18.27;100.00;101026.47;4916879;28;20579;-76
2022/06/25 01:25:48;;;;;;;5.73;5.23;;;;;;;18.12;100.00;101023.50;4918964;28;20581;-78
2022/06/25 01:28:14;;;;;;;5.47;4.97;;;;;;;18.06;100.00;101028.84;4921535;28;20214;-78
2022/06/25 01:30:39;;;;;;;5.83;5.43;;;;;;;17.65;100.00;100956.69;4934630;28;20203;-77
2022/06/25 01:33:09;;;;;;;6.73;6.13;;;;;;;17.57;100.00;100960.63;4923979;28;20945;-78
2022/06/25 01:35:35;;;;;;;5.90;5.40;;;;;;;17.95;100.00;101005.28;4927990;28;20211;-77
2022/06/25 01:38:01;;;;;;;6.23;5.67;;;;;;;17.49;100.00;100938.47;4916953;28;20963;-78
2022/06/25 01:40:27;;;;;;;6.40;5.87;;;;;;;17.89;100.00;101008.16;4918828;28;20243;-77
2022/06/25 01:43:00;;;;;;;5.40;5.00;;;;;;;18.03;100.00;101017.66;4915832;28;20982;-76
2022/06/25 01:45:36;;;;;;;5.67;5.17;;;;;;;17.95;100.00;101020.75;4926514;28;20211;-77
2022/06/25 01:48:06;;;;;;;6.37;5.70;;;;;;;17.97;100.00;101021.34;4922369;28;20474;-78
2022/06/25 01:50:33;;;;;;;6.03;5.33;;;;;;;17.97;100.00;101024.88;4927546;28;20463;-77
2022/06/25 01:52:59;;;;;;;6.13;5.63;;;;;;;17.94;100.00;101032.69;4921302;28;20854;-78
2022/06/25 01:55:24;;;;;;;5.60;5.20;;;;;;;16.84;100.00;100875.41;4917979;28;20444;-78
2022/06/25 01:57:50;;;;;;;7.27;6.57;;;;;;;17.49;100.00;100974.56;4920492;28;20253;-78
2022/06/25 02:00:24;;;;;;;6.47;5.83;;;;;;;17.12;100.00;100931.53;4917779;28;20560;-78
2022/06/25 02:02:51;;;;;;;6.80;6.03;;;;;;;17.63;100.00;101049.16;4919566;28;20267;-77
2022/06/25 02:05:17;;;;;;;6.70;6.10;;;;;;;17.73;100.00;101045.81;4922324;28;20505;-77
2022/06/25 02:07:44;;;;;;;6.37;5.83;;;;;;;16.75;100.00;100895.78;4919210;28;20979;-77
2022/06/25 02:10:10;;;;;;;6.00;5.40;;;;;;;15.98;100.00;100761.47;4919429;28;20491;-78
2022/06/25 02:12:36;;;;;;;5.90;5.23;;;;;;;17.63;100.00;101027.44;4916754;28;20439;-78
2022/06/25 02:15:02;;;;;;;5.40;4.87;;;;;;;17.58;100.00;101018.38;4921124;28;20199;-77
2022/06/25 02:17:28;;;;;;;5.80;5.30;;;;;;;17.47;100.00;101021.94;4924419;28;20222;-79
2022/06/25 02:19:53;;;;;;;6.57;6.00;;;;;;;17.36;100.00;100999.25;4925277;28;20921;-78
2022/06/25 02:22:19;;;;;;;6.17;5.67;;;;;;;16.76;100.00;100910.16;4925454;28;20499;-78
2022/06/25 02:24:45;;;;;;;5.90;5.40;;;;;;;17.53;100.00;101048.09;4919713;28;20184;-78
2022/06/25 02:27:10;;;;;;;7.00;5.37;;;;;;;17.49;100.00;101049.66;4917011;28;20184;-78
2022/06/25 02:29:36;;;;;;;6.77;6.07;;;;;;;17.55;100.00;101046.81;4921513;28;20466;-78
2022/06/25 02:32:03;;;;;;;7.13;6.43;;;;;;;17.32;100.00;101030.59;4918552;28;20203;-78
2022/06/25 02:34:29;;;;;;;7.23;6.63;;;;;;;17.47;100.00;101033.63;4926670;28;20192;-78
2022/06/25 02:36:54;;;;;;;7.63;6.93;;;;;;;17.45;100.00;101060.16;4923207;28;20447;-78
2022/06/25 02:39:19;;;;;;;6.60;5.83;;;;;;;16.60;100.00;100925.22;4923860;28;20204;-77
2022/06/25 02:41:45;;;;;;;6.87;6.13;;;;;;;17.45;100.00;101060.16;4921122;28;20194;-77
2022/06/25 02:44:10;;;;;;;10.67;6.60;;;;;;;16.92;100.00;100991.56;4921933;28;20706;-77
2022/06/25 02:46:36;;;;;;;6.10;5.50;;;;;;;17.35;100.00;101063.47;4919566;28;20192;-77
2022/06/25 02:49:02;;;;;;;7.40;6.80;;;;;;;17.34;100.00;101050.16;4934124;22;26580;-69
2022/06/25 02:51:27;;;;;;;11.23;7.33;;;;;;;17.26;100.00;101059.47;5001734;28;20308;-70
2022/06/25 02:53:55;;;;;;;7.13;6.53;;;;;;;17.33;100.00;101075.66;5002594;28;20193;-70
2022/06/25 02:59:05;;;;;;;9.37;6.20;;;;;;;17.20;100.00;101062.31;5004914;28;20463;-69
2022/06/25 03:01:30;;;;;;;6.90;6.30;;;;;;;17.24;100.00;101085.19;5004969;28;20539;-70
2022/06/25 03:03:57;;;;;;;7.03;6.03;;;;;;;17.25;100.00;101093.09;5004266;28;20646;-70
2022/06/25 03:06:23;;;;;;;7.83;7.10;;;;;;;17.24;100.00;101091.44;5002271;28;20829;-69
2022/06/25 03:08:48;;;;;;;7.23;6.63;;;;;;;17.10;100.00;101069.19;5007733;28;20472;-69
2022/06/25 03:11:14;;;;;;;8.20;7.40;;;;;;;16.87;100.00;101033.97;5009890;28;20204;-70
2022/06/25 03:13:40;;;;;;;7.63;7.03;;;;;;;17.22;100.00;101100.88;5006740;28;20192;-69
2022/06/25 03:16:07;;;;;;;8.87;8.07;;;;;;;17.22;100.00;101125.28;5007972;28;20189;-69
2022/06/25 03:18:34;;;;;;;7.50;6.80;;;;;;;16.95;100.00;101066.09;5007084;28;20542;-70
2022/06/25 03:21:00;;;;;;;7.60;7.00;;;;;;;17.24;100.00;101128.53;5003670;28;21088;-69
2022/06/25 03:23:26;;;;;;;7.50;6.90;;;;;;;17.20;100.00;101130.09;5003126;28;20444;-69
2022/06/25 03:25:51;;;;;;;8.07;7.33;;;;;;;17.24;100.00;101133.97;5004789;28;20447;-69
2022/06/25 03:28:17;;;;;;;7.57;6.87;;;;;;;17.27;100.00;101137.06;5005989;28;20718;-69
2022/06/25 03:30:42;;;;;;;8.00;7.40;;;;;;;16.94;100.00;101097.78;5003238;28;20212;-70
2022/06/25 03:33:08;;;;;;;9.07;8.17;;;;;;;17.10;100.00;101123.38;5004825;28;20196;-69
2022/06/25 03:35:34;;;;;;;9.30;8.40;;;;;;;17.14;100.00;101145.41;5005922;28;20197;-70
2022/06/25 03:37:59;;;;;;;8.77;7.83;;;;;;;16.94;100.00;101118.63;5003051;28;20203;-69
2022/06/25 03:40:25;;;;;;;6.73;6.20;;;;;;;17.18;100.00;101149.28;5003712;28;20204;-70
2022/06/25 03:42:50;;;;;;;8.33;7.63;;;;;;;17.18;100.00;101138.44;5003195;28;20192;-70
2022/06/25 03:45:16;;;;;;;8.90;8.10;;;;;;;17.11;100.00;101145.88;5002319;28;20254;-70
2022/06/25 03:47:41;;;;;;;7.20;6.60;;;;;;;17.04;100.00;101131.59;5004655;28;20197;-70
2022/06/25 03:50:07;;;;;;;8.30;7.60;;;;;;;17.20;100.00;101147.19;5003180;28;20212;-70
2022/06/25 03:52:33;;;;;;;8.10;7.40;;;;;;;16.89;100.00;101113.09;5003313;28;20243;-70
2022/06/25 03:54:59;;;;;;;8.47;7.77;;;;;;;17.16;100.00;101152.25;5005661;28;21213;-70
2022/06/25 03:57:25;;;;;;;8.57;7.87;;;;;;;17.18;100.00;101149.28;5003982;28;20641;-70
2022/06/25 03:59:51;;;;;;;8.67;7.70;;;;;;;17.16;100.00;101151.44;5002753;28;20296;-70
2022/06/25 04:02:16;;;;;;;8.17;7.50;;;;;;;17.14;100.00;101148.94;4999744;28;20439;-70
2022/06/25 04:04:42;;;;;;;8.47;7.17;;;;;;;17.20;100.00;101143.66;5004101;28;20440;-70
2022/06/25 04:07:08;;;;;;;9.07;8.23;;;;;;;17.14;100.00;101143.50;5003726;28;20737;-70
2022/06/25 04:09:33;;;;;;;8.30;7.60;;;;;;;17.19;100.00;101137.41;5006479;28;20217;-70
2022/06/25 04:11:58;;;;;;;8.17;7.37;;;;;;;17.13;100.00;101133.75;5002716;28;20212;-70
2022/06/25 04:14:24;;;;;;;8.10;7.40;;;;;;;17.25;100.00;101151.91;5000191;28;20193;-70
2022/06/25 04:16:49;;;;;;;8.57;7.87;;;;;;;17.39;100.00;101142.47;5000818;28;20608;-70
2022/06/25 04:19:14;;;;;;;8.70;7.80;;;;;;;17.42;100.00;101141.19;5003875;28;20209;-69
2022/06/25 04:21:40;;;;;;;7.77;7.10;;;;;;;17.14;100.00;101100.16;5002405;28;20719;-70
2022/06/25 04:24:05;;;;;;;8.77;7.87;;;;;;;17.50;100.00;101157.91;5003124;28;20193;-69
2022/06/25 04:26:31;;;;;;;8.97;8.17;;;;;;;17.49;100.00;101144.56;5002942;28;20280;-70
2022/06/25 04:29:08;;;;;;;8.00;7.07;;;;;;;17.20;100.00;101078.59;5004136;28;20196;-69
2022/06/25 04:31:35;;;;;;;8.33;7.60;;;;;;;17.65;100.00;101146.56;5003689;28;20212;-70
2022/06/25 04:34:01;;;;;;;8.60;7.90;;;;;;;17.66;100.00;101150.94;5004842;28;20483;-70
2022/06/25 04:36:26;;;;;;;19.33;8.23;;;;;;;17.67;100.00;101151.75;5002497;28;20487;-70
2022/06/25 04:38:52;;;;;;;8.47;7.70;;;;;;;17.35;100.00;101092.47;4996031;28;20707;-70
2022/06/25 04:41:17;;;;;;;8.37;7.57;;;;;;;17.59;100.00;101121.22;5003546;28;20224;-69
2022/06/25 04:43:43;;;;;;;9.03;8.17;;;;;;;17.81;100.00;101164.84;5003057;28;20192;-70
2022/06/25 04:46:09;;;;;;;9.00;8.20;;;;;;;17.82;100.00;101166.50;5005706;28;20185;-70
2022/06/25 04:48:34;;;;;;;7.90;7.20;;;;;;;17.89;100.00;101171.78;5004364;28;20445;-70
2022/06/25 04:51:00;;;;;;;8.87;8.00;;;;;;;17.90;100.00;101150.91;5003149;28;20224;-69
2022/06/25 04:53:25;;;;;;;10.40;9.40;;;;;;;17.67;100.00;101132.75;5003134;28;20231;-70
2022/06/25 04:55:51;;;;;;;9.47;8.47;;;;;;;17.76;100.00;101125.88;5004118;28;20217;-70
2022/06/25 04:58:16;;;;;;;10.10;9.20;;;;;;;17.62;100.00;101122.63;5002628;28;20201;-70
2022/06/25 05:00:42;;;;;;;9.40;8.47;;;;;;;17.77;100.00;101152.78;5002995;28;20661;-70
2022/06/25 05:03:08;;;;;;;14.17;9.50;;;;;;;17.90;100.00;101164.47;5001654;28;20193;-70
2022/06/25 05:05:33;;;;;;;9.60;8.70;;;;;;;18.03;100.00;101183.22;5002693;28;20232;-71
2022/06/25 05:07:59;;;;;;;9.40;8.57;;;;;;;17.36;100.00;101092.25;5005078;28;20448;-71
2022/06/25 05:10:24;;;;;;;9.53;8.83;;;;;;;17.38;100.00;101095.53;5003257;28;20286;-71
2022/06/25 05:15:34;;;;;;;10.40;9.40;;;;;;;17.91;100.00;101177.00;5002017;28;20200;-71
2022/06/25 05:17:59;;;;;;;8.83;8.13;;;;;;;17.88;100.00;101172.03;5003306;28;20852;-70
2022/06/25 05:20:25;;;;;;;9.00;8.20;;;;;;;17.97;100.00;101174.16;5004375;28;20212;-71
2022/06/25 05:22:50;;;;;;;9.80;8.80;;;;;;;18.10;100.00;101199.34;5001652;28;20566;-71
2022/06/25 05:25:16;;;;;;;11.83;8.80;;;;;;;18.13;100.00;101199.69;5002160;28;21218;-71
2022/06/25 05:27:41;;;;;;;8.87;8.03;;;;;;;18.13;100.00;101186.13;5002231;28;20201;-71
2022/06/25 05:30:07;;;;;;;9.50;8.63;;;;;;;18.16;100.00;101191.06;4999132;28;20205;-70
2022/06/25 05:32:33;;;;;;;10.80;9.00;;;;;;;18.24;100.00;101198.03;5002971;28;20582;-70
2022/06/25 05:34:59;;;;;;;10.70;9.70;;;;;;;18.30;100.00;101211.44;5001598;28;20997;-70
2022/06/25 05:37:24;;;;;;;9.47;8.47;;;;;;;18.39;100.00;101197.50;4997402;28;20788;-71
2022/06/25 05:39:51;;;;;;;9.90;8.50;;;;;;;18.41;100.00;101196.19;5002837;28;21074;-71
2022/06/25 05:42:17;;;;;;;9.40;8.43;;;;;;;18.41;100.00;101190.75;5002494;28;20181;-70
2022/06/25 05:44:43;;;;;;;8.33;7.17;;;;;;;17.87;100.00;101095.22;5002836;28;20944;-71
2022/06/25 05:47:09;;;;;;;7.20;6.60;;;;;;;18.45;100.00;101169.38;5001492;28;20192;-71
2022/06/25 05:49:35;;;;;;;7.43;6.60;;;;;;;18.67;100.00;101199.38;4999146;28;21079;-71
2022/06/25 05:52:00;;;;;;;7.17;6.10;;;;;;;18.72;100.00;101200.31;4996761;28;20510;-71
2022/06/25 05:54:26;;;;;;;8.93;8.03;;;;;;;18.43;100.00;101155.22;5002727;28;20443;-71
2022/06/25 05:56:52;;;;;;;7.57;6.80;;;;;;;18.73;100.00;101201.13;5002797;28;20212;-71
2022/06/25 05:59:17;;;;;;;6.83;6.23;;;;;;;18.71;100.00;101195.91;4999313;28;20247;-71
2022/06/25 06:01:42;;;;;;;9.67;6.70;;;;;;;18.73;100.00;101210.13;5000543;28;20594;-71
2022/06/25 06:04:08;;;;;;;8.80;7.30;;;;;;;18.68;100.00;101201.84;5005577;28;20196;-71
2022/06/25 06:06:33;;;;;;;8.50;7.20;;;;;;;18.65;100.00;101182.50;5004443;28;20289;-71
2022/06/25 06:08:59;;;;;;;7.90;7.10;;;;;;;18.69;100.00;101200.81;5005150;28;20193;-71
2022/06/25 06:11:24;;;;;;;7.07;6.47;;;;;;;18.89;100.00;101211.25;5004678;28;20241;-71
2022/06/25 06:13:50;;;;;;;7.30;6.60;;;;;;;18.95;100.00;101212.97;5005465;28;20569;-71
2022/06/25 06:16:15;;;;;;;7.00;6.40;;;;;;;18.74;100.00;101181.06;5004467;28;20194;-71
2022/06/25 06:18:41;;;;;;;8.20;6.97;;;;;;;18.58;100.00;101154.69;5005636;28;20355;-71
2022/06/25 06:21:06;;;;;;;8.10;7.40;;;;;;;18.74;100.00;101184.59;5002642;28;20297;-72
2022/06/25 06:23:31;;;;;;;8.20;6.90;;;;;;;18.99;100.00;101216.03;5003116;28;20197;-71
2022/06/25 06:25:57;;;;;;;8.53;7.73;;;;;;;18.84;100.00;101197.56;5007291;28;20202;-71
2022/06/25 06:28:22;;;;;;;14.87;7.87;;;;;;;18.89;100.00;101219.41;5004351;28;20193;-71
2022/06/25 06:30:47;;;;;;;8.03;7.30;;;;;;;18.53;100.00;101158.09;5004450;28;20295;-71
2022/06/25 06:33:13;;;;;;;8.50;7.40;;;;;;;18.32;100.00;101126.22;5002921;28;20203;-72
2022/06/25 06:35:38;;;;;;;7.93;7.00;;;;;;;19.01;100.00;101221.22;4994454;28;20192;-71
2022/06/25 06:38:04;;;;;;;9.67;6.80;;;;;;;19.07;100.00;101220.25;4995399;28;20201;-71
2022/06/25 06:40:29;;;;;;;8.67;7.87;;;;;;;18.89;100.00;101196.81;4994209;28;21468;-71
2022/06/25 06:42:56;;;;;;;7.10;6.50;;;;;;;19.07;100.00;101212.91;4993746;28;20181;-70
2022/06/25 06:45:22;;;;;;;7.10;6.50;;;;;;;19.06;100.00;101213.13;4994374;28;20598;-71
2022/06/25 06:47:48;;;;;;;7.00;6.30;;;;;;;19.11;100.00;101211.31;4995209;28;21014;-72
2022/06/25 06:50:13;;;;;;;8.57;7.77;;;;;;;19.00;100.00;101201.34;5004198;28;20472;-71
2022/06/25 06:52:38;;;;;;;6.80;6.13;;;;;;;19.25;100.00;101216.44;5005141;28;20213;-70
2022/06/25 06:55:04;;;;;;;9.83;8.23;;;;;;;19.21;100.00;101227.00;5006471;28;20284;-71
2022/06/25 06:57:34;;;;;;;7.80;7.00;;;;;;;19.02;100.00;101182.09;5004845;28;20828;-72
2022/06/25 07:00:00;;;;;;;7.10;6.07;;;;;;;19.27;100.00;101225.19;4996526;28;20216;-72
2022/06/25 07:02:26;;;;;;;7.20;6.50;;;;;;;19.34;100.00;101231.28;4997514;28;20471;-71
2022/06/25 07:04:52;;;;;;;5.80;5.20;;;;;;;19.47;100.00;101230.09;4999874;28;20213;-71
2022/06/25 07:07:18;;;;;;;6.10;5.53;;;;;;;19.18;100.00;101173.94;5001307;28;20475;-72
2022/06/25 07:09:43;;;;;;;6.20;5.60;;;;;;;19.50;100.00;101230.47;5003882;28;20471;-71
2022/06/25 07:12:09;;;;;;;4.93;4.53;;;;;;;19.62;100.00;101227.63;4999022;28;20845;-70
2022/06/25 07:14:35;;;;;;;7.60;6.90;;;;;;;19.51;100.00;101234.81;4983179;28;20653;-68
2022/06/25 07:17:00;;;;;;;6.73;6.13;;;;;;;19.33;100.00;101207.88;4997640;28;20189;-70
2022/06/25 07:19:25;;;;;;;8.50;6.73;;;;;;;19.45;100.00;101219.50;5000002;28;20476;-71
2022/06/25 07:21:52;;;;;;;6.10;5.50;;;;;;;19.45;100.00;101202.34;5000637;28;20176;-71
2022/06/25 07:24:17;;;;;;;8.50;7.70;;;;;;;19.52;100.00;101233.72;4997896;28;20208;-72
2022/06/25 07:26:43;;;;;;;5.93;5.43;;;;;;;19.40;100.00;101192.19;5001929;28;20916;-71
2022/06/25 07:29:08;;;;;;;11.33;7.30;;;;;;;19.54;100.00;101231.59;5001203;28;20216;-72
2022/06/25 07:31:34;;;;;;;8.90;7.70;;;;;;;19.32;100.00;101190.72;4995931;28;20309;-74
2022/06/25 07:34:00;;;;;;;8.53;6.50;;;;;;;19.41;100.00;101199.28;4997060;28;20258;-73
2022/06/25 07:36:25;;;;;;;8.80;7.37;;;;;;;19.68;100.00;101247.63;5000366;28;20200;-74
2022/06/25 07:38:52;;;;;;;7.00;5.77;;;;;;;19.46;100.00;101185.75;4996716;28;20276;-77
2022/06/25 07:41:17;;;;;;;7.20;6.50;;;;;;;18.84;100.00;101096.19;5000278;28;20188;-71
2022/06/25 07:43:43;;;;;;;6.47;5.47;;;;;;;19.82;100.00;101227.13;4996485;28;20443;-73
2022/06/25 07:46:09;;;;;;;13.27;6.60;;;;;;;19.89;100.00;101240.56;4999964;28;20428;-72
2022/06/25 07:48:35;;;;;;;6.57;5.97;;;;;;;19.92;100.00;101240.88;4997454;28;20235;-72
2022/06/25 07:53:44;;;;;;;7.30;6.47;;;;;;;20.00;100.00;101228.75;4995084;28;20223;-75
2022/06/25 07:56:10;;;;;;;6.17;5.57;;;;;;;19.73;100.00;101180.47;4998246;28;20471;-72
2022/06/25 07:58:35;;;;;;;7.90;5.20;;;;;;;20.07;100.00;101229.38;4994152;28;20197;-73
2022/06/25 08:01:01;;;;;;;6.47;5.43;;;;;;;19.83;100.00;101169.72;4992567;28;20646;-72
2022/06/25 08:03:27;;;;;;;8.67;5.60;;;;;;;20.17;100.00;101240.41;4993802;28;20286;-72
2022/06/25 08:05:53;;;;;;;6.40;5.80;;;;;;;20.06;100.00;101244.88;4992524;28;21317;-70
2022/06/25 08:08:18;;;;;;;5.27;4.87;;;;;;;20.17;100.00;101234.94;4997590;28;20642;-70
2022/06/25 08:10:44;;;;;;;5.87;4.73;;;;;;;20.29;100.00;101226.66;4991872;28;20320;-70
2022/06/25 08:13:09;;;;;;;7.57;5.07;;;;;;;20.12;100.00;101196.75;4985832;28;20197;-72
2022/06/25 08:15:35;;;;;;;4.90;4.50;;;;;;;20.29;100.00;101230.19;4992777;28;20198;-70
2022/06/25 08:18:01;;;;;;;5.47;4.97;;;;;;;20.03;100.00;101195.56;4990002;28;20204;-70
2022/06/25 08:20:26;;;;;;;5.60;5.10;;;;;;;19.99;100.00;101178.91;4992956;28;20232;-70
2022/06/25 08:22:52;;;;;;;4.67;4.17;;;;;;;20.31;100.00;101214.44;5003296;28;20323;-69
2022/06/25 08:25:17;;;;;;;5.00;4.50;;;;;;;20.42;100.00;101248.03;5004183;28;20193;-69
2022/06/25 08:27:51;;;;;;;4.57;4.03;;;;;;;20.01;100.00;101143.25;5004851;28;20543;-69
2022/06/25 08:30:18;;;;;;;4.80;4.27;;;;;;;20.51;100.00;101221.16;4998359;28;20232;-69
2022/06/25 08:32:44;;;;;;;4.00;2.80;;;;;;;20.70;100.00;101229.84;4986508;28;20842;-69
2022/06/25 08:35:09;;;;;;;6.70;4.50;;;;;;;20.50;100.00;101222.25;4996467;28;20443;-69
2022/06/25 08:37:39;;;;;;;5.43;4.60;;;;;;;20.27;100.00;101171.59;4986346;28;20873;-69
2022/06/25 08:40:08;;;;;;;5.60;4.00;;;;;;;20.68;100.00;101221.94;4987418;28;20303;-70
2022/06/25 08:42:34;;;;;;;6.43;4.20;;;;;;;20.88;100.00;101228.66;4983687;28;20450;-70
2022/06/25 08:45:00;;;;;;;4.60;4.20;;;;;;;20.80;100.00;101218.22;4988709;28;26795;-70
2022/06/25 08:47:26;;;;;;;3.20;2.90;;;;;;;20.79;100.00;101220.13;4978154;28;20814;-70
2022/06/25 08:49:52;;;;;;;4.27;3.13;;;;;;;20.90;100.00;101210.16;4989677;28;20495;-69
2022/06/25 08:52:18;;;;;;;3.97;3.17;;;;;;;20.80;100.00;101201.88;5001896;22;20227;-72
2022/06/25 08:54:45;;;;;;;4.10;3.07;;;;;;;20.87;100.00;101202.50;5005923;28;20445;-73
2022/06/25 08:57:11;;;;;;;4.83;3.37;;;;;;;20.91;100.00;101203.59;5006666;28;20817;-73
2022/06/25 08:59:38;;;;;;;4.53;4.10;;;;;;;20.64;100.00;101162.75;5006401;28;20518;-74
2022/06/25 09:02:04;;;;;;;3.50;3.20;;;;;;;20.82;100.00;101175.19;5013636;28;20212;-73
2022/06/25 09:04:30;;;;;;;3.93;3.43;;;;;;;21.08;100.00;101225.31;5035709;28;20512;-73
2022/06/25 09:07:15;;;;;;;5.80;3.80;;;;;;;21.11;100.00;101211.16;5033797;28;20755;-73
2022/06/25 09:09:45;;;;;;;3.40;3.10;;;;;;;21.16;100.00;101206.56;5026966;28;20443;-72
2022/06/25 09:12:13;;;;;;;4.40;3.57;;;;;;;21.05;100.00;101185.75;5020125;28;20535;-72
2022/06/25 09:14:39;;;;;;;4.30;3.10;;;;;;;21.29;100.00;101210.78;5033453;28;20446;-73
2022/06/25 09:17:08;;;;;;;3.83;3.53;;;;;;;21.17;100.00;101210.91;5038798;28;20435;-73
2022/06/25 09:19:45;;;;;;;3.90;2.40;;;;;;;21.21;100.00;101197.59;5030192;28;20649;-73
2022/06/25 09:22:18;;;;;;;5.93;2.90;;;;;;;21.29;100.00;101212.66;5025100;28;20577;-73
2022/06/25 09:24:48;;;;;;;5.77;3.20;;;;;;;21.10;100.00;101184.97;5025026;28;20530;-74
2022/06/25 09:27:20;;;;;;;3.80;2.50;;;;;;;20.79;100.00;101115.72;5029297;28;20471;-73
2022/06/25 09:29:49;;;;;;;2.70;2.07;;;;;;;21.36;100.00;101203.19;5030236;28;20969;-74
2022/06/25 09:32:17;;;;;;;3.27;2.20;;;;;;;21.08;100.00;101147.03;5031969;28;20859;-73
2022/06/25 09:34:43;;;;;;;2.40;2.20;;;;;;;21.47;100.00;101171.34;5026875;28;20456;-73
2022/06/25 09:37:25;;;;;;;2.17;1.97;;;;;;;21.71;100.00;101204.50;5026783;28;21053;-75
2022/06/25 09:39:52;;;;;;;3.97;2.37;;;;;;;21.58;100.00;101194.06;5040473;28;20191;-74
2022/06/25 09:42:32;;;;;;;3.53;2.17;;;;;;;21.41;100.00;101161.50;5026463;28;20466;-73
2022/06/25 09:45:09;;;;;;;2.43;2.10;;;;;;;21.78;100.00;101199.63;5027004;28;20809;-73
2022/06/25 09:47:39;;;;;;;7.37;1.87;;;;;;;21.67;100.00;101189.75;5034668;28;20469;-74
2022/06/25 09:50:11;;;;;;;2.20;2.00;;;;;;;21.85;100.00;101197.50;5034211;28;20812;-74
2022/06/25 09:52:47;;;;;;;3.07;1.50;;;;;;;21.82;100.00;101170.72;5029455;28;20497;-74
2022/06/25 09:55:13;;;;;;;2.97;1.40;;;;;;;21.79;100.00;101165.78;5032197;28;20998;-75
2022/06/25 09:57:39;;;;;;;3.57;1.60;;;;;;;21.48;100.00;101136.69;5031885;28;20496;-74
2022/06/25 10:00:05;;;;;;;3.57;2.00;;;;;;;21.88;100.00;101194.22;5037808;28;20600;-74
2022/06/25 10:02:31;;;;;;;2.57;2.13;;;;;;;21.48;100.00;101121.13;5039810;28;21050;-74
2022/06/25 10:05:01;;;;;;;3.50;1.60;;;;;;;21.88;100.00;101177.84;5037360;28;20488;-73
2022/06/25 10:10:18;;;;;;;2.13;1.70;;;;;;;21.55;100.00;101126.34;5038779;28;20441;-74
2022/06/25 10:12:45;;;;;;;2.40;1.37;;;;;;;21.56;100.00;101145.19;5039555;28;20581;-74
2022/06/25 10:15:12;;;;;;;4.23;1.50;;;;;;;21.92;100.00;101201.88;5036909;28;20469;-73
2022/06/25 10:17:39;;;;;;;2.70;1.20;;;;;;;21.93;100.00;101152.47;5036299;28;20449;-74
2022/06/25 10:20:05;;;;;;;4.47;1.83;;;;;;;22.17;100.00;101193.84;5035896;28;20471;-73
2022/06/25 10:22:31;;;;;;;1.93;1.50;;;;;;;21.98;100.00;101138.00;5035220;28;20663;-74
2022/06/25 10:24:59;;;;;;;4.33;1.50;;;;;;;22.11;100.00;101149.25;5038827;28;20956;-74
2022/06/25 10:27:24;;;;;;;1.90;1.50;;;;;;;22.33;100.00;101167.38;5038589;28;20453;-74
2022/06/25 10:29:55;;;;;;;2.43;1.20;;;;;;;22.29;100.00;101183.50;5039025;28;20502;-74
2022/06/25 10:32:20;;;;;;;3.77;1.23;;;;;;;21.83;100.00;101108.72;5040380;28;20212;-74
2022/06/25 10:34:57;;;;;;;1.63;1.27;;;;;;;22.39;100.00;101203.72;5037875;28;20603;-73
2022/06/25 10:37:23;;;;;;;3.40;1.37;;;;;;;22.18;100.00;101159.13;5037557;28;20190;-73
2022/06/25 10:39:55;;;;;;;1.20;1.10;;;;;;;22.27;100.00;101203.97;5028791;28;20517;-74
2022/06/25 10:45:08;;;;;;;2.60;1.23;;;;;;;21.94;100.00;101134.19;5040208;28;20442;-73
2022/06/25 10:47:47;;;;;;;1.30;1.20;;;;;;;22.40;100.00;101211.69;5038031;28;20434;-74
2022/06/25 10:50:22;;;;;;;2.63;1.37;;;;;;;22.38;100.00;101197.44;5040388;28;20429;-74
2022/06/25 10:53:03;;;;;;;1.73;1.13;;;;;;;22.56;100.00;101202.44;5042190;28;20576;-74
2022/06/25 10:55:29;;;;;;;2.60;1.70;;;;;;;22.59;100.00;101203.78;5028012;28;20484;-74
2022/06/25 10:58:16;;;;;;;2.90;1.40;;;;;;;22.47;100.00;101201.28;5026340;28;21206;-74
2022/06/25 11:00:45;;;;;;;2.30;1.33;;;;;;;22.56;100.00;101204.31;5021371;28;20465;-72
2022/06/25 11:03:10;;;;;;;2.00;1.17;;;;;;;22.19;100.00;101126.09;5027207;28;20466;-73
2022/06/25 11:05:44;;;;;;;2.27;1.20;;;;;;;22.67;100.00;101199.69;5028487;28;20446;-73
2022/06/25 11:08:11;;;;;;;1.50;1.40;;;;;;;22.61;100.00;101184.38;5025282;28;20195;-72
2022/06/25 11:10:39;;;;;;;1.20;1.00;;;;;;;22.53;100.00;101152.94;5032819;28;20447;-73
2022/06/25 11:13:06;;;;;;;3.10;1.43;;;;;;;22.37;100.00;101146.63;5030780;28;20943;-74
2022/06/25 11:15:43;;;;;;;2.50;1.50;;;;;;;22.19;100.00;101145.22;5031117;28;20448;-74
2022/06/25 11:18:10;;;;;;;1.87;1.33;;;;;;;22.71;100.00;101209.84;5035420;28;20760;-76
2022/06/25 11:20:36;;;;;;;1.00;0.90;;;;;;;22.70;100.00;101169.91;5019606;28;20443;-76
2022/06/25 11:23:05;;;;;;;1.83;1.47;;;;;;;23.08;100.00;101205.22;5033721;28;20808;-77
2022/06/25 11:28:48;;;;;;;4.27;1.30;;;;;;;22.71;100.00;101178.91;5035331;28;20476;-78
2022/06/25 11:31:14;;;;;;;3.10;1.30;;;;;;;22.87;100.00;101177.03;5033015;28;20957;-78